Time;durP1;ratioP1;P1;durP2;ratioP2;P2;SDS_P1;SDS_P2;PMS_P1;PMS_P2;Temp;Humidity;BMP_temperature;BMP_pressure;BME280_temperature;BME280_humidity;BME280_pressure;Samples;Min_cycle;Max_cycle;Signal;HPM_P1;HPM_P2
2024/02/06 00:00:41;;;;;;;24.27;12.35;;;20.70;99.90;;;;;;5067040;28;20481;-62
2024/02/06 00:03:07;;;;;;;23.17;12.40;;;20.60;99.90;;;;;;5064697;28;20160;-61
2024/02/06 00:05:34;;;;;;;19.75;12.05;;;20.60;99.90;;;;;;5066904;28;20111;-60
2024/02/06 00:08:00;;;;;;;26.58;12.48;;;20.60;99.90;;;;;;5065509;28;20092;-63
2024/02/06 00:10:27;;;;;;;25.88;11.60;;;20.70;99.90;;;;;;5065677;28;20572;-61
2024/02/06 00:12:53;;;;;;;25.00;11.90;;;20.70;99.90;;;;;;5063557;28;20074;-61
2024/02/06 00:15:20;;;;;;;26.95;11.73;;;20.70;99.90;;;;;;5065062;28;20560;-61
2024/02/06 00:17:46;;;;;;;28.73;11.98;;;20.60;99.90;;;;;;5064925;28;20151;-62
2024/02/06 00:20:19;;;;;;;29.58;12.93;;;20.60;99.90;;;;;;5065075;28;20544;-62
2024/02/06 00:22:45;;;;;;;22.17;12.80;;;20.60;99.90;;;;;;5064638;28;20555;-63
2024/02/06 00:25:12;;;;;;;18.50;11.10;;;20.60;99.90;;;;;;5065702;28;20087;-62
2024/02/06 00:27:40;;;;;;;28.63;12.38;;;20.50;99.90;;;;;;5065569;28;20195;-62
2024/02/06 00:30:07;;;;;;;24.75;12.10;;;20.50;99.90;;;;;;5066024;28;20108;-61
2024/02/06 00:32:33;;;;;;;19.52;12.60;;;20.40;99.90;;;;;;5063580;28;20077;-61
2024/02/06 00:35:00;;;;;;;22.33;12.02;;;20.30;99.90;;;;;;5064001;28;20444;-62
2024/02/06 00:37:30;;;;;;;20.17;10.70;;;20.20;99.90;;;;;;5064708;28;20081;-62
2024/02/06 00:39:57;;;;;;;19.10;7.53;;;20.20;99.90;;;;;;5062722;28;20080;-60
2024/02/06 00:42:23;;;;;;;13.25;4.97;;;20.00;99.90;;;;;;5065077;28;20107;-63
2024/02/06 00:44:50;;;;;;;11.63;4.60;;;19.80;99.90;;;;;;5063936;28;20514;-64
2024/02/06 00:47:16;;;;;;;16.52;4.40;;;19.80;99.90;;;;;;5064159;28;20119;-62
2024/02/06 00:49:44;;;;;;;10.75;3.63;;;19.70;99.90;;;;;;5065276;28;20113;-62
2024/02/06 00:52:10;;;;;;;16.05;3.60;;;19.50;99.90;;;;;;5064394;28;20084;-62
2024/02/06 00:54:37;;;;;;;17.98;5.13;;;19.40;99.90;;;;;;5064329;28;20069;-64
2024/02/06 00:57:04;;;;;;;21.13;4.38;;;19.40;99.90;;;;;;5066236;28;20073;-65
2024/02/06 00:59:31;;;;;;;9.77;3.72;;;19.40;99.90;;;;;;5065389;28;20073;-63
2024/02/06 01:02:00;;;;;;;12.32;4.25;;;19.30;99.90;;;;;;5064753;28;20073;-62
2024/02/06 01:04:26;;;;;;;14.48;4.05;;;19.20;99.90;;;;;;5064562;28;20122;-64
2024/02/06 01:06:53;;;;;;;12.68;6.10;;;19.20;99.90;;;;;;5063798;28;20571;-61
2024/02/06 01:09:19;;;;;;;21.38;3.85;;;19.20;99.90;;;;;;5065818;28;20080;-58
2024/02/06 01:11:46;;;;;;;28.40;4.82;;;19.20;99.90;;;;;;5065404;28;20080;-58
2024/02/06 01:14:12;;;;;;;25.67;4.28;;;19.10;99.90;;;;;;5064530;28;20130;-60
2024/02/06 01:16:40;;;;;;;21.98;4.03;;;19.20;99.90;;;;;;5061825;28;20089;-60
2024/02/06 01:19:06;;;;;;;8.57;4.18;;;19.10;99.90;;;;;;5062728;28;20073;-60
2024/02/06 01:21:33;;;;;;;21.55;5.68;;;19.00;99.90;;;;;;5069492;28;20084;-59
2024/02/06 01:23:59;;;;;;;16.05;5.47;;;18.90;99.90;;;;;;5065473;28;20079;-60
2024/02/06 01:26:26;;;;;;;21.70;6.88;;;18.80;99.90;;;;;;5065779;28;20158;-60
2024/02/06 01:28:52;;;;;;;28.33;8.05;;;18.70;99.90;;;;;;5064717;28;20084;-59
2024/02/06 01:31:19;;;;;;;24.23;5.93;;;18.60;99.90;;;;;;5068586;28;20085;-61
2024/02/06 01:33:45;;;;;;;18.88;5.50;;;18.70;99.90;;;;;;5069529;28;20524;-61
2024/02/06 01:36:11;;;;;;;25.90;6.13;;;18.70;99.90;;;;;;5066902;28;20544;-61
2024/02/06 01:38:38;;;;;;;18.52;4.93;;;18.60;99.90;;;;;;5069784;28;20194;-60
2024/02/06 01:41:04;;;;;;;13.85;4.43;;;18.60;99.90;;;;;;5065264;28;20967;-61
2024/02/06 01:43:31;;;;;;;18.15;4.38;;;18.50;99.90;;;;;;5067369;28;20444;-60
2024/02/06 01:45:58;;;;;;;12.75;4.50;;;18.50;99.90;;;;;;5066649;28;20124;-60
2024/02/06 01:48:25;;;;;;;15.25;5.57;;;18.50;99.90;;;;;;5078001;28;20115;-60
2024/02/06 01:50:52;;;;;;;19.30;6.05;;;18.40;99.90;;;;;;5066388;28;20194;-60
2024/02/06 01:53:21;;;;;;;24.95;7.65;;;18.40;99.90;;;;;;5068361;28;20073;-60
2024/02/06 01:55:48;;;;;;;22.95;8.75;;;18.20;99.90;;;;;;5066285;28;20175;-60
2024/02/06 01:58:15;;;;;;;21.23;8.70;;;18.00;99.90;;;;;;5069678;28;20073;-60
2024/02/06 02:00:44;;;;;;;21.90;8.85;;;17.80;99.90;;;;;;5071140;28;20191;-59
2024/02/06 02:03:11;;;;;;;19.92;9.02;;;17.70;99.90;;;;;;5068746;28;20081;-59
2024/02/06 02:05:39;;;;;;;19.65;8.02;;;17.60;99.90;;;;;;5067209;28;20773;-60
2024/02/06 02:08:06;;;;;;;21.25;8.73;;;17.50;99.90;;;;;;5066588;28;20675;-61
2024/02/06 02:10:32;;;;;;;22.83;9.88;;;17.50;99.90;;;;;;5067954;28;20097;-60
2024/02/06 02:12:59;;;;;;;28.23;9.32;;;17.50;99.90;;;;;;5067183;28;20079;-60
2024/02/06 02:15:25;;;;;;;25.75;10.00;;;17.40;99.90;;;;;;5067056;28;20073;-61
2024/02/06 02:17:52;;;;;;;23.00;9.60;;;17.30;99.90;;;;;;5067332;28;20080;-61
2024/02/06 02:20:19;;;;;;;20.63;10.15;;;17.20;99.90;;;;;;5068019;28;20095;-60
2024/02/06 02:22:45;;;;;;;23.08;11.50;;;17.10;99.90;;;;;;5067824;28;20567;-59
2024/02/06 02:25:12;;;;;;;26.25;11.23;;;17.10;99.90;;;;;;5067577;28;20090;-61
2024/02/06 02:27:39;;;;;;;20.98;11.75;;;17.10;99.90;;;;;;5070684;28;20532;-61
2024/02/06 02:30:06;;;;;;;25.30;12.40;;;17.00;99.90;;;;;;5069314;28;20101;-60
2024/02/06 02:32:33;;;;;;;24.98;13.43;;;16.90;99.90;;;;;;5067286;28;20172;-59
2024/02/06 02:35:00;;;;;;;27.10;13.38;;;16.70;99.90;;;;;;5064259;28;20126;-60
2024/02/06 02:37:26;;;;;;;23.65;12.45;;;16.60;99.90;;;;;;5069017;28;20081;-59
2024/02/06 02:39:52;;;;;;;27.30;13.52;;;16.50;99.90;;;;;;5066050;28;20134;-61
2024/02/06 02:42:19;;;;;;;23.80;13.80;;;16.50;99.90;;;;;;5065449;28;20085;-60
2024/02/06 02:44:45;;;;;;;29.85;14.07;;;16.50;99.90;;;;;;5065290;28;20084;-61
2024/02/06 02:47:13;;;;;;;25.73;13.73;;;16.50;99.90;;;;;;5067356;28;20109;-60
2024/02/06 02:49:39;;;;;;;25.98;13.80;;;16.40;99.90;;;;;;5067513;28;20204;-62
2024/02/06 02:52:06;;;;;;;22.38;14.27;;;16.40;99.90;;;;;;5067629;28;20112;-61
2024/02/06 02:54:32;;;;;;;28.60;14.85;;;16.30;99.90;;;;;;5066557;28;20101;-60
2024/02/06 02:56:59;;;;;;;33.47;15.48;;;16.40;99.90;;;;;;5067413;28;20488;-61
2024/02/06 02:59:25;;;;;;;38.38;13.88;;;16.30;99.90;;;;;;5066622;28;20152;-60
2024/02/06 03:01:52;;;;;;;28.95;14.23;;;16.30;99.90;;;;;;5067820;28;20073;-61
2024/02/06 03:04:18;;;;;;;25.98;13.98;;;16.30;99.90;;;;;;5067104;28;20073;-61
2024/02/06 03:06:45;;;;;;;23.10;12.65;;;16.30;99.90;;;;;;5067569;28;20542;-63
2024/02/06 03:09:15;;;;;;;25.13;13.80;;;16.20;99.90;;;;;;5066997;28;20562;-61
2024/02/06 03:11:41;;;;;;;25.65;12.63;;;16.00;99.90;;;;;;5065102;28;20175;-60
2024/02/06 03:14:08;;;;;;;27.08;12.25;;;16.00;99.90;;;;;;5065420;28;20187;-61
2024/02/06 03:16:34;;;;;;;21.88;11.98;;;16.00;99.90;;;;;;5065932;28;20089;-61
2024/02/06 03:19:01;;;;;;;22.15;12.18;;;16.00;99.90;;;;;;5064174;28;20099;-63
2024/02/06 03:21:27;;;;;;;22.60;11.63;;;16.00;99.90;;;;;;5068031;28;20084;-61
2024/02/06 03:23:53;;;;;;;23.08;11.70;;;15.90;99.90;;;;;;5066554;28;20138;-61
2024/02/06 03:26:20;;;;;;;24.25;12.45;;;15.90;99.90;;;;;;5067521;28;20085;-61
2024/02/06 03:28:46;;;;;;;24.50;12.23;;;15.90;99.90;;;;;;5064400;28;20077;-62
2024/02/06 03:31:13;;;;;;;28.85;13.48;;;15.90;99.90;;;;;;5066824;28;20101;-61
2024/02/06 03:33:39;;;;;;;22.95;13.32;;;15.90;99.90;;;;;;5066800;28;20105;-59
2024/02/06 03:36:06;;;;;;;25.33;13.23;;;15.90;99.90;;;;;;5067101;28;20109;-59
2024/02/06 03:38:32;;;;;;;27.02;11.93;;;15.80;99.90;;;;;;5069668;28;20101;-60
2024/02/06 03:40:59;;;;;;;30.80;12.93;;;15.80;99.90;;;;;;5065386;28;20066;-62
2024/02/06 03:43:25;;;;;;;21.58;11.27;;;15.70;99.90;;;;;;5064849;28;20099;-60
2024/02/06 03:45:52;;;;;;;21.38;10.63;;;15.70;99.90;;;;;;5061892;28;20104;-59
2024/02/06 03:48:18;;;;;;;23.92;11.43;;;15.70;99.90;;;;;;5065697;28;20436;-61
2024/02/06 03:50:45;;;;;;;18.60;11.57;;;15.80;99.90;;;;;;5065860;28;20179;-61
2024/02/06 03:53:11;;;;;;;21.65;10.65;;;15.90;99.90;;;;;;5065330;28;20069;-60
2024/02/06 03:55:38;;;;;;;20.90;10.55;;;15.90;99.90;;;;;;5065984;28;20073;-61
2024/02/06 03:58:04;;;;;;;26.23;11.95;;;15.90;99.90;;;;;;5064473;28;20183;-60
2024/02/06 04:00:31;;;;;;;18.27;10.07;;;15.90;99.90;;;;;;5061718;28;20081;-60
2024/02/06 04:02:57;;;;;;;21.52;10.55;;;15.90;99.90;;;;;;5063225;28;20443;-60
2024/02/06 04:05:24;;;;;;;25.42;10.93;;;15.90;99.90;;;;;;5059722;28;20518;-61
2024/02/06 04:07:50;;;;;;;17.08;9.88;;;15.90;99.90;;;;;;5060607;28;20073;-60
2024/02/06 04:10:17;;;;;;;23.20;10.85;;;15.80;99.90;;;;;;5059721;28;20105;-60
2024/02/06 04:12:44;;;;;;;19.80;9.65;;;15.80;99.90;;;;;;5061347;28;20168;-61
2024/02/06 04:15:10;;;;;;;21.17;9.52;;;15.70;99.90;;;;;;5059189;28;20073;-62
2024/02/06 04:17:37;;;;;;;26.60;9.40;;;15.80;99.90;;;;;;5058046;28;20077;-61
2024/02/06 04:20:05;;;;;;;20.42;9.55;;;15.70;99.90;;;;;;5057693;28;20574;-62
2024/02/06 04:22:31;;;;;;;16.00;9.30;;;15.60;99.90;;;;;;5059256;28;20069;-59
2024/02/06 04:24:58;;;;;;;20.77;9.20;;;15.50;99.90;;;;;;5060791;28;20159;-62
2024/02/06 04:27:24;;;;;;;18.83;8.15;;;15.50;99.90;;;;;;5062260;28;20130;-60
2024/02/06 04:29:51;;;;;;;16.70;8.52;;;15.60;99.90;;;;;;5059537;28;20104;-59
2024/02/06 04:32:17;;;;;;;19.95;8.68;;;15.70;99.90;;;;;;5060783;28;20073;-60
2024/02/06 04:34:44;;;;;;;18.15;8.95;;;15.70;99.90;;;;;;5057857;28;20081;-60
2024/02/06 04:37:10;;;;;;;17.15;7.82;;;15.70;99.90;;;;;;5058568;28;21331;-61
2024/02/06 04:39:36;;;;;;;13.88;8.02;;;15.80;99.90;;;;;;5063425;28;20161;-63
2024/02/06 04:42:03;;;;;;;18.00;9.27;;;15.70;99.90;;;;;;5060329;28;20590;-60
2024/02/06 04:44:29;;;;;;;14.55;8.20;;;15.60;99.90;;;;;;5057502;28;20137;-60
2024/02/06 04:46:57;;;;;;;16.02;8.02;;;15.60;99.90;;;;;;5060770;28;20121;-60
2024/02/06 04:49:24;;;;;;;19.90;9.35;;;15.50;99.90;;;;;;5063002;28;20533;-60
2024/02/06 04:51:50;;;;;;;22.63;9.35;;;15.50;99.90;;;;;;5063242;28;20073;-61
2024/02/06 04:54:17;;;;;;;18.50;8.57;;;15.50;99.90;;;;;;5063897;28;20097;-63
2024/02/06 04:56:44;;;;;;;21.65;8.25;;;15.50;99.90;;;;;;5060996;28;20081;-60
2024/02/06 04:59:12;;;;;;;24.17;8.95;;;15.50;99.90;;;;;;5059542;28;20089;-60
2024/02/06 05:01:38;;;;;;;23.33;10.32;;;15.50;99.90;;;;;;5062433;28;20081;-60
2024/02/06 05:04:05;;;;;;;20.45;8.70;;;15.50;99.90;;;;;;5060062;28;20089;-61
2024/02/06 05:06:31;;;;;;;20.67;8.00;;;15.60;99.90;;;;;;5064664;28;20103;-61
2024/02/06 05:08:59;;;;;;;15.38;8.32;;;15.60;99.90;;;;;;5059292;28;20081;-60
2024/02/06 05:11:25;;;;;;;21.40;8.88;;;15.50;99.90;;;;;;5058414;28;20630;-60
2024/02/06 05:13:51;;;;;;;21.92;10.50;;;15.50;99.90;;;;;;5059099;28;20073;-60
2024/02/06 05:16:18;;;;;;;25.42;10.55;;;15.50;99.90;;;;;;5063151;28;20081;-60
2024/02/06 05:18:44;;;;;;;19.35;9.73;;;15.50;99.90;;;;;;5059506;28;20097;-60
2024/02/06 05:21:13;;;;;;;20.50;10.23;;;15.50;99.90;;;;;;5058147;28;20085;-60
2024/02/06 05:23:39;;;;;;;29.73;10.70;;;15.60;99.90;;;;;;5055747;28;20077;-62
2024/02/06 05:26:06;;;;;;;18.95;10.88;;;15.50;99.90;;;;;;5059899;28;20081;-61
2024/02/06 05:28:33;;;;;;;26.67;10.20;;;15.40;99.90;;;;;;5062381;28;20097;-62
2024/02/06 05:30:59;;;;;;;24.58;9.98;;;15.50;99.90;;;;;;5056931;28;20192;-61
2024/02/06 05:33:26;;;;;;;27.42;11.60;;;15.50;99.90;;;;;;5063240;28;20551;-60
2024/02/06 05:35:53;;;;;;;27.40;10.82;;;15.50;99.90;;;;;;5062348;28;20075;-61
2024/02/06 05:38:19;;;;;;;20.02;9.85;;;15.50;99.90;;;;;;5058275;28;20077;-61
2024/02/06 05:40:46;;;;;;;20.73;9.00;;;15.50;99.90;;;;;;5059827;28;20084;-61
2024/02/06 05:43:12;;;;;;;20.90;9.60;;;15.50;99.90;;;;;;5057631;28;20094;-61
2024/02/06 05:45:39;;;;;;;20.23;8.38;;;15.50;99.90;;;;;;5057662;28;20131;-60
2024/02/06 05:48:05;;;;;;;17.20;8.15;;;15.50;99.90;;;;;;5060581;28;20095;-62
2024/02/06 05:50:32;;;;;;;17.80;7.88;;;15.40;99.90;;;;;;5061521;28;20101;-61
2024/02/06 05:52:58;;;;;;;19.23;10.20;;;15.40;99.90;;;;;;5060559;28;20547;-61
2024/02/06 05:55:28;;;;;;;17.73;8.10;;;15.30;99.90;;;;;;5060786;28;20110;-61
2024/02/06 05:57:55;;;;;;;15.77;9.35;;;15.40;99.90;;;;;;5056039;28;20195;-60
2024/02/06 06:00:22;;;;;;;24.42;9.60;;;15.40;99.90;;;;;;5058737;28;20084;-61
2024/02/06 06:02:48;;;;;;;24.65;9.50;;;15.40;99.90;;;;;;5061590;28;20164;-60
2024/02/06 06:05:14;;;;;;;16.23;9.55;;;15.30;99.90;;;;;;5058199;28;20600;-60
2024/02/06 06:07:41;;;;;;;16.70;8.45;;;15.40;99.90;;;;;;5060903;28;20316;-60
2024/02/06 06:10:08;;;;;;;18.30;8.48;;;15.30;99.90;;;;;;5061173;28;20136;-60
2024/02/06 06:12:34;;;;;;;18.50;8.88;;;15.30;99.90;;;;;;5060658;28;20179;-59
2024/02/06 06:15:01;;;;;;;23.92;10.23;;;15.30;99.90;;;;;;5059404;28;20143;-64
2024/02/06 06:17:27;;;;;;;16.77;9.60;;;15.30;99.90;;;;;;5063837;28;20123;-60
2024/02/06 06:19:54;;;;;;;17.67;9.02;;;15.30;99.90;;;;;;5063366;28;20102;-61
2024/02/06 06:22:20;;;;;;;20.15;9.63;;;15.30;99.90;;;;;;5064308;28;20088;-60
2024/02/06 06:24:46;;;;;;;15.60;8.30;;;15.30;99.90;;;;;;5062993;28;20073;-58
2024/02/06 06:27:14;;;;;;;21.63;14.88;;;15.20;99.90;;;;;;5067989;28;20199;-59
2024/02/06 06:29:41;;;;;;;15.77;8.10;;;15.20;99.90;;;;;;5062625;28;20553;-60
2024/02/06 06:32:07;;;;;;;19.70;8.38;;;15.20;99.90;;;;;;5062129;28;20077;-62
2024/02/06 06:34:33;;;;;;;19.40;8.50;;;15.20;99.90;;;;;;5061516;28;20107;-60
2024/02/06 06:37:00;;;;;;;14.77;7.28;;;15.20;99.90;;;;;;5063363;28;20120;-61
2024/02/06 06:39:26;;;;;;;14.10;7.07;;;15.10;99.90;;;;;;5061999;28;20073;-61
2024/02/06 06:41:53;;;;;;;16.30;6.57;;;15.10;99.90;;;;;;5065180;28;20069;-61
2024/02/06 06:44:19;;;;;;;17.98;7.07;;;15.10;99.90;;;;;;5060883;28;20088;-61
2024/02/06 06:46:47;;;;;;;14.95;7.20;;;15.10;99.90;;;;;;5062728;28;20109;-59
2024/02/06 06:49:14;;;;;;;17.25;7.30;;;15.10;99.90;;;;;;5061089;28;20169;-61
2024/02/06 06:51:42;;;;;;;9.60;6.25;;;15.00;99.90;;;;;;5060889;28;20561;-60
2024/02/06 06:54:08;;;;;;;15.50;7.00;;;15.00;99.90;;;;;;5061687;28;20081;-60
2024/02/06 06:56:35;;;;;;;14.68;6.68;;;15.00;99.90;;;;;;5061295;28;20081;-61
2024/02/06 06:59:01;;;;;;;14.95;7.75;;;15.10;99.90;;;;;;5065198;28;20065;-59
2024/02/06 07:01:28;;;;;;;17.33;7.20;;;15.10;99.90;;;;;;5062996;28;20084;-59
2024/02/06 07:03:54;;;;;;;21.27;6.43;;;15.10;99.90;;;;;;5063546;28;20081;-59
2024/02/06 07:06:21;;;;;;;12.95;6.82;;;15.00;99.90;;;;;;5063623;28;20448;-62
2024/02/06 07:08:48;;;;;;;11.73;7.55;;;15.00;99.90;;;;;;5061134;28;20077;-60
2024/02/06 07:11:15;;;;;;;15.10;6.78;;;15.00;99.90;;;;;;5062668;28;20575;-62
2024/02/06 07:13:42;;;;;;;15.30;6.93;;;15.00;99.90;;;;;;5059682;28;20418;-60
2024/02/06 07:16:09;;;;;;;14.65;6.88;;;14.90;99.90;;;;;;5063466;28;20073;-60
2024/02/06 07:18:36;;;;;;;16.38;7.82;;;14.80;99.90;;;;;;5061607;28;20073;-60
2024/02/06 07:21:02;;;;;;;31.05;20.85;;;14.90;99.90;;;;;;5063573;28;20531;-60
2024/02/06 07:23:29;;;;;;;18.80;7.63;;;14.80;99.90;;;;;;5061440;28;20517;-60
2024/02/06 07:25:55;;;;;;;17.60;7.75;;;14.80;99.90;;;;;;5064155;28;20069;-60
2024/02/06 07:28:22;;;;;;;19.27;8.85;;;14.70;99.90;;;;;;5059141;28;20081;-60
2024/02/06 07:30:48;;;;;;;18.45;8.00;;;14.60;99.90;;;;;;5063161;28;20100;-59
2024/02/06 07:33:15;;;;;;;21.27;8.93;;;14.60;99.90;;;;;;5063155;28;20073;-60
2024/02/06 07:35:41;;;;;;;15.90;8.27;;;14.60;99.90;;;;;;5061588;28;20077;-61
2024/02/06 07:38:08;;;;;;;16.33;7.93;;;14.60;99.90;;;;;;5061483;28;20069;-61
2024/02/06 07:40:34;;;;;;;16.83;7.55;;;14.50;99.90;;;;;;5063908;28;20091;-59
2024/02/06 07:43:01;;;;;;;17.92;8.73;;;14.50;99.90;;;;;;5062731;28;20084;-59
2024/02/06 07:45:27;;;;;;;21.38;9.20;;;14.50;99.90;;;;;;5064637;28;20081;-60
2024/02/06 07:47:54;;;;;;;14.63;7.60;;;14.50;99.90;;;;;;5059267;28;20156;-60
2024/02/06 07:50:20;;;;;;;17.35;8.90;;;14.40;99.90;;;;;;5062628;28;20123;-59
2024/02/06 07:52:47;;;;;;;15.80;8.35;;;14.30;99.90;;;;;;5060693;28;20138;-59
2024/02/06 07:55:16;;;;;;;19.73;8.98;;;14.30;99.90;;;;;;5061444;28;20417;-60
2024/02/06 07:57:43;;;;;;;18.95;8.90;;;14.30;99.90;;;;;;5063509;28;20077;-60
2024/02/06 08:00:10;;;;;;;18.60;8.88;;;14.20;99.90;;;;;;5062459;28;20084;-61
2024/02/06 08:02:37;;;;;;;17.13;8.82;;;14.20;99.90;;;;;;5062945;28;20068;-61
2024/02/06 08:05:05;;;;;;;22.63;8.90;;;14.20;99.90;;;;;;5061056;28;20073;-61
2024/02/06 08:07:31;;;;;;;30.80;9.43;;;14.20;99.90;;;;;;5060569;28;20104;-61
2024/02/06 08:09:58;;;;;;;17.05;8.98;;;14.20;99.90;;;;;;5059259;28;20113;-60
2024/02/06 08:12:24;;;;;;;18.58;9.43;;;14.20;99.90;;;;;;5061549;28;20083;-60
2024/02/06 08:14:51;;;;;;;17.20;8.85;;;14.20;99.90;;;;;;5059509;28;21207;-62
2024/02/06 08:17:18;;;;;;;19.58;8.02;;;14.20;99.90;;;;;;5063331;28;20547;-60
2024/02/06 08:19:44;;;;;;;16.65;8.88;;;14.20;99.90;;;;;;5061936;28;20490;-60
2024/02/06 08:22:11;;;;;;;24.25;10.10;;;14.10;99.90;;;;;;5061272;28;20544;-60
2024/02/06 08:24:37;;;;;;;18.77;8.35;;;14.10;99.90;;;;;;5060242;28;20168;-60
2024/02/06 08:27:04;;;;;;;18.92;9.65;;;14.10;99.90;;;;;;5060464;28;20533;-60
2024/02/06 08:29:31;;;;;;;17.55;9.10;;;14.10;99.90;;;;;;5060569;28;20437;-60
2024/02/06 08:31:57;;;;;;;16.30;9.45;;;14.10;99.90;;;;;;5060539;28;20077;-60
2024/02/06 08:34:25;;;;;;;17.85;9.60;;;14.10;99.90;;;;;;5065327;28;20077;-60
2024/02/06 08:36:52;;;;;;;17.63;9.88;;;14.20;99.90;;;;;;5059175;28;20077;-61
2024/02/06 08:39:19;;;;;;;20.52;9.98;;;14.10;99.90;;;;;;5062668;28;20664;-61
2024/02/06 08:41:46;;;;;;;17.27;8.48;;;14.10;99.90;;;;;;5058751;28;20547;-59
2024/02/06 08:44:13;;;;;;;15.48;8.25;;;14.10;99.90;;;;;;5060518;28;20069;-59
2024/02/06 08:46:39;;;;;;;12.25;8.30;;;14.10;99.90;;;;;;5060354;28;20178;-61
2024/02/06 08:49:07;;;;;;;19.20;9.68;;;14.10;99.90;;;;;;5059032;28;20069;-60
2024/02/06 08:51:33;;;;;;;20.83;9.05;;;14.10;99.90;;;;;;5062312;28;20217;-61
2024/02/06 08:54:00;;;;;;;26.63;9.75;;;14.20;99.90;;;;;;5060963;28;20217;-61
2024/02/06 08:56:26;;;;;;;24.55;10.07;;;14.20;99.90;;;;;;5059875;28;20077;-59
2024/02/06 08:58:53;;;;;;;20.05;9.70;;;14.20;99.90;;;;;;5060600;28;20101;-59
2024/02/06 09:01:23;;;;;;;16.95;10.30;;;14.20;99.90;;;;;;5059366;28;20070;-61
2024/02/06 09:03:51;;;;;;;20.20;9.95;;;14.20;99.90;;;;;;5057248;28;20097;-60
2024/02/06 09:06:19;;;;;;;18.58;10.65;;;14.10;99.90;;;;;;5058982;28;20072;-60
2024/02/06 09:08:46;;;;;;;20.92;11.13;;;14.10;99.90;;;;;;5062443;28;20085;-60
2024/02/06 09:11:13;;;;;;;21.83;9.95;;;14.10;99.90;;;;;;5058771;28;20167;-60
2024/02/06 09:13:39;;;;;;;17.52;11.15;;;14.10;99.90;;;;;;5060641;28;20115;-60
2024/02/06 09:16:06;;;;;;;18.83;10.40;;;14.00;99.90;;;;;;5061229;28;20070;-60
2024/02/06 09:18:32;;;;;;;17.55;10.20;;;13.90;99.90;;;;;;5058904;28;20076;-59
2024/02/06 09:20:59;;;;;;;20.05;10.57;;;13.90;99.90;;;;;;5059559;28;20156;-60
2024/02/06 09:23:25;;;;;;;15.50;10.10;;;13.90;99.90;;;;;;5062485;28;20072;-61
2024/02/06 09:25:53;;;;;;;18.63;11.38;;;13.90;99.90;;;;;;5059168;28;21361;-60
2024/02/06 09:28:19;;;;;;;19.73;10.82;;;13.90;99.90;;;;;;5060981;28;20081;-60
2024/02/06 09:30:46;;;;;;;22.45;11.98;;;13.90;99.90;;;;;;5061028;28;20183;-61
2024/02/06 09:33:13;;;;;;;20.05;12.05;;;13.90;99.90;;;;;;5060372;28;20069;-60
2024/02/06 09:35:39;;;;;;;17.42;11.75;;;13.90;99.90;;;;;;5060354;28;20116;-61
2024/02/06 09:38:06;;;;;;;19.90;13.18;;;13.90;99.90;;;;;;5060092;28;20164;-60
2024/02/06 09:40:33;;;;;;;21.20;12.60;;;13.90;99.90;;;;;;5059524;28;20592;-60
2024/02/06 09:43:00;;;;;;;28.15;12.40;;;13.90;99.90;;;;;;5060271;28;20120;-60
2024/02/06 09:45:27;;;;;;;22.33;11.90;;;13.90;99.90;;;;;;5059181;28;20084;-59
2024/02/06 09:47:53;;;;;;;23.23;12.57;;;13.90;99.90;;;;;;5057915;28;20109;-59
2024/02/06 09:50:20;;;;;;;19.75;12.25;;;13.90;99.90;;;;;;5064297;28;20135;-59
2024/02/06 09:52:52;;;;;;;18.65;11.10;;;13.80;99.90;;;;;;5064403;28;20077;-59
2024/02/06 09:55:22;;;;;;;20.10;10.90;;;13.80;99.90;;;;;;5065440;28;20533;-59
2024/02/06 09:57:49;;;;;;;18.27;11.30;;;13.80;99.90;;;;;;5065371;28;20109;-60
2024/02/06 10:00:16;;;;;;;17.30;11.15;;;13.80;99.90;;;;;;5066306;28;20485;-61
2024/02/06 10:02:45;;;;;;;22.27;11.70;;;13.80;99.90;;;;;;5062555;28;20385;-60
2024/02/06 10:05:17;;;;;;;15.43;9.88;;;13.60;99.90;;;;;;5065020;28;20089;-60
2024/02/06 10:07:51;;;;;;;18.77;10.57;;;13.60;99.90;;;;;;5063210;28;20077;-61
2024/02/06 10:10:19;;;;;;;23.90;12.30;;;13.50;99.90;;;;;;5063515;28;20097;-61
2024/02/06 10:12:46;;;;;;;16.20;11.30;;;13.50;99.90;;;;;;5063574;28;20107;-61
2024/02/06 10:15:20;;;;;;;17.00;10.95;;;13.50;99.90;;;;;;5063586;28;20085;-60
2024/02/06 10:17:46;;;;;;;14.65;10.70;;;13.50;99.90;;;;;;5063356;28;20073;-60
2024/02/06 10:20:13;;;;;;;23.83;14.32;;;13.40;99.90;;;;;;5064429;28;20088;-60
2024/02/06 10:22:41;;;;;;;18.65;11.90;;;13.40;99.90;;;;;;5062797;28;20085;-60
2024/02/06 10:25:08;;;;;;;23.08;13.40;;;13.50;99.90;;;;;;5061605;28;20069;-60
2024/02/06 10:27:34;;;;;;;22.92;14.63;;;13.50;99.90;;;;;;5061775;28;20069;-60
2024/02/06 10:30:03;;;;;;;27.60;14.73;;;13.60;99.90;;;;;;5061069;28;20187;-60
2024/02/06 10:32:33;;;;;;;28.25;17.98;;;13.70;99.90;;;;;;5062732;28;20083;-60
2024/02/06 10:35:07;;;;;;;37.75;23.30;;;13.70;99.90;;;;;;5065160;28;20516;-60
2024/02/06 10:37:36;;;;;;;38.60;23.52;;;13.70;99.90;;;;;;5056642;28;20078;-61
2024/02/06 10:40:10;;;;;;;40.25;24.27;;;13.70;99.90;;;;;;5060286;28;20118;-60
2024/02/06 10:42:39;;;;;;;42.75;26.35;;;13.70;99.90;;;;;;5059134;28;20113;-60
2024/02/06 10:45:07;;;;;;;37.20;23.60;;;13.70;99.90;;;;;;5059566;28;20069;-63
2024/02/06 10:47:34;;;;;;;32.65;21.60;;;13.90;99.90;;;;;;5062548;28;20231;-63
2024/02/06 10:50:05;;;;;;;40.55;22.38;;;14.20;99.90;;;;;;5066937;28;20112;-67
2024/02/06 10:52:33;;;;;;;33.10;20.77;;;14.50;99.90;;;;;;5062110;28;20172;-65
2024/02/06 10:55:00;;;;;;;39.53;21.33;;;14.70;99.90;;;;;;5058937;28;20069;-66
2024/02/06 10:57:32;;;;;;;38.05;20.92;;;14.80;99.90;;;;;;5061973;28;20563;-65
2024/02/06 11:00:07;;;;;;;32.95;19.95;;;14.80;99.90;;;;;;5062555;28;20440;-65
2024/02/06 11:02:36;;;;;;;27.13;19.63;;;14.90;99.90;;;;;;5062859;28;20106;-65
2024/02/06 11:05:21;;;;;;;37.38;20.25;;;14.90;99.90;;;;;;5064419;28;20077;-65
2024/02/06 11:07:53;;;;;;;30.38;18.27;;;14.90;99.90;;;;;;5061618;28;20081;-65
2024/02/06 11:10:24;;;;;;;28.45;18.27;;;15.00;99.90;;;;;;5061256;28;20577;-64
2024/02/06 11:13:02;;;;;;;32.90;17.83;;;15.00;99.90;;;;;;5066640;28;20085;-66
2024/02/06 11:15:30;;;;;;;23.75;15.40;;;15.00;99.90;;;;;;5060695;28;20081;-63
2024/02/06 11:17:57;;;;;;;22.20;13.82;;;15.10;99.90;;;;;;5061534;28;20116;-65
2024/02/06 11:20:27;;;;;;;22.58;14.65;;;15.20;99.90;;;;;;5061772;28;20535;-65
2024/02/06 11:22:55;;;;;;;21.02;13.07;;;15.10;99.90;;;;;;5060610;28;20076;-64
2024/02/06 11:25:27;;;;;;;22.02;11.98;;;15.20;99.90;;;;;;5061336;28;20069;-66
2024/02/06 11:27:56;;;;;;;16.50;10.25;;;15.20;99.90;;;;;;5066249;28;20130;-65
2024/02/06 11:30:23;;;;;;;17.85;9.43;;;15.20;99.90;;;;;;5060603;28;21311;-64
2024/02/06 11:33:04;;;;;;;16.10;7.85;;;15.30;99.90;;;;;;5060440;28;20081;-64
2024/02/06 11:35:31;;;;;;;11.57;7.50;;;15.20;99.90;;;;;;5060629;28;20083;-65
2024/02/06 11:37:58;;;;;;;11.07;6.28;;;15.30;99.90;;;;;;5063384;28;20116;-66
2024/02/06 11:40:25;;;;;;;13.98;7.35;;;15.40;99.90;;;;;;5060893;28;20533;-65
2024/02/06 11:43:08;;;;;;;10.32;7.20;;;15.50;99.90;;;;;;5060743;28;20073;-65
2024/02/06 11:45:36;;;;;;;14.43;6.78;;;15.60;99.90;;;;;;5058413;28;20081;-64
2024/02/06 11:48:08;;;;;;;12.52;6.60;;;15.70;99.90;;;;;;5059333;28;20128;-65
2024/02/06 11:50:45;;;;;;;11.38;6.45;;;15.70;99.90;;;;;;5062673;28;20097;-63
2024/02/06 11:53:17;;;;;;;15.73;7.32;;;15.80;99.90;;;;;;5064496;28;20164;-64
2024/02/06 11:55:44;;;;;;;16.35;6.90;;;15.80;99.90;;;;;;5058962;28;20082;-64
2024/02/06 11:58:13;;;;;;;12.70;7.25;;;15.80;99.90;;;;;;5062132;28;21535;-64
2024/02/06 12:00:39;;;;;;;14.38;7.45;;;15.70;99.90;;;;;;5059030;28;20073;-63
2024/02/06 12:03:06;;;;;;;11.75;7.55;;;15.70;99.90;;;;;;5061225;28;20065;-64
2024/02/06 12:05:40;;;;;;;13.57;7.25;;;15.60;99.90;;;;;;5058194;28;20142;-65
2024/02/06 12:08:07;;;;;;;17.85;7.00;;;15.60;99.90;;;;;;5056148;28;20080;-64
2024/02/06 12:10:35;;;;;;;14.45;7.00;;;15.70;99.90;;;;;;5057721;28;20196;-63
2024/02/06 12:13:09;;;;;;;11.38;7.28;;;15.70;99.90;;;;;;5056744;28;20168;-65
2024/02/06 12:15:37;;;;;;;24.90;17.02;;;15.80;99.90;;;;;;5058257;28;20096;-64
2024/02/06 12:18:08;;;;;;;13.52;7.82;;;15.80;99.90;;;;;;5059054;28;20084;-65
2024/02/06 12:20:40;;;;;;;14.82;7.25;;;15.80;99.90;;;;;;5058919;28;20069;-63
2024/02/06 12:23:09;;;;;;;14.13;6.90;;;15.70;99.90;;;;;;5055871;28;20127;-63
2024/02/06 12:25:37;;;;;;;20.33;9.25;;;15.80;99.90;;;;;;5058656;28;20525;-64
2024/02/06 12:28:15;;;;;;;24.90;9.52;;;15.60;99.90;;;;;;5060214;28;20073;-66
2024/02/06 12:30:44;;;;;;;20.10;10.32;;;15.50;99.90;;;;;;5058861;28;20117;-64
2024/02/06 12:33:10;;;;;;;26.50;16.75;;;15.60;99.90;;;;;;5056142;28;20187;-64